sensor_id;sensor_type;location;lat;lon;timestamp;P1;durP1;ratioP1;P2;durP2;ratioP2
48487;SDS011;34289;48.572;13.378;2023-07-13T00:00:10;10.32;;;5.20;;
48487;SDS011;34289;48.572;13.378;2023-07-13T00:02:37;8.55;;;5.88;;
48487;SDS011;34289;48.572;13.378;2023-07-13T00:05:03;7.03;;;5.03;;
48487;SDS011;34289;48.572;13.378;2023-07-13T00:07:28;7.30;;;5.53;;
48487;SDS011;34289;48.572;13.378;2023-07-13T00:09:56;9.77;;;5.75;;
48487;SDS011;34289;48.572;13.378;2023-07-13T00:12:29;8.90;;;5.78;;
48487;SDS011;34289;48.572;13.378;2023-07-13T00:15:01;10.25;;;6.55;;
48487;SDS011;34289;48.572;13.378;2023-07-13T00:17:32;10.38;;;6.25;;
48487;SDS011;34289;48.572;13.378;2023-07-13T00:19:58;9.73;;;6.07;;
48487;SDS011;34289;48.572;13.378;2023-07-13T00:22:24;7.45;;;5.75;;
48487;SDS011;34289;48.572;13.378;2023-07-13T00:24:53;8.02;;;5.47;;
48487;SDS011;34289;48.572;13.378;2023-07-13T00:27:21;9.13;;;5.65;;
48487;SDS011;34289;48.572;13.378;2023-07-13T00:29:47;9.20;;;5.47;;
48487;SDS011;34289;48.572;13.378;2023-07-13T00:32:12;11.95;;;5.82;;
48487;SDS011;34289;48.572;13.378;2023-07-13T00:34:39;10.25;;;6.00;;
48487;SDS011;34289;48.572;13.378;2023-07-13T00:37:05;11.93;;;6.50;;
48487;SDS011;34289;48.572;13.378;2023-07-13T00:39:32;9.13;;;6.28;;
48487;SDS011;34289;48.572;13.378;2023-07-13T00:41:58;10.55;;;6.07;;
48487;SDS011;34289;48.572;13.378;2023-07-13T00:44:24;7.68;;;5.72;;
48487;SDS011;34289;48.572;13.378;2023-07-13T00:46:49;9.65;;;5.75;;
48487;SDS011;34289;48.572;13.378;2023-07-13T00:49:16;11.63;;;5.85;;
48487;SDS011;34289;48.572;13.378;2023-07-13T00:52:06;11.50;;;6.28;;
48487;SDS011;34289;48.572;13.378;2023-07-13T00:54:33;10.07;;;6.82;;
48487;SDS011;34289;48.572;13.378;2023-07-13T00:57:05;12.20;;;6.68;;
48487;SDS011;34289;48.572;13.378;2023-07-13T00:59:35;9.93;;;6.45;;
48487;SDS011;34289;48.572;13.378;2023-07-13T01:02:04;9.40;;;6.38;;
48487;SDS011;34289;48.572;13.378;2023-07-13T01:04:30;9.07;;;6.40;;
48487;SDS011;34289;48.572;13.378;2023-07-13T01:06:55;12.63;;;7.05;;
48487;SDS011;34289;48.572;13.378;2023-07-13T01:09:22;11.02;;;6.63;;
48487;SDS011;34289;48.572;13.378;2023-07-13T01:11:48;11.32;;;6.82;;
48487;SDS011;34289;48.572;13.378;2023-07-13T01:14:14;9.90;;;6.35;;
48487;SDS011;34289;48.572;13.378;2023-07-13T01:16:41;10.82;;;6.05;;
48487;SDS011;34289;48.572;13.378;2023-07-13T01:19:32;12.70;;;6.25;;
48487;SDS011;34289;48.572;13.378;2023-07-13T01:22:04;12.18;;;7.00;;
48487;SDS011;34289;48.572;13.378;2023-07-13T01:24:38;12.00;;;6.75;;
48487;SDS011;34289;48.572;13.378;2023-07-13T01:27:06;9.30;;;6.78;;
48487;SDS011;34289;48.572;13.378;2023-07-13T01:29:33;9.85;;;7.00;;
48487;SDS011;34289;48.572;13.378;2023-07-13T01:32:05;15.07;;;6.75;;
48487;SDS011;34289;48.572;13.378;2023-07-13T01:34:33;8.60;;;6.32;;
48487;SDS011;34289;48.572;13.378;2023-07-13T01:36:58;14.48;;;6.82;;
48487;SDS011;34289;48.572;13.378;2023-07-13T01:39:24;10.18;;;6.70;;
48487;SDS011;34289;48.572;13.378;2023-07-13T01:41:50;9.55;;;6.85;;
48487;SDS011;34289;48.572;13.378;2023-07-13T01:44:15;11.43;;;7.50;;
48487;SDS011;34289;48.572;13.378;2023-07-13T01:46:41;13.40;;;7.47;;
48487;SDS011;34289;48.572;13.378;2023-07-13T01:49:06;11.98;;;7.85;;
48487;SDS011;34289;48.572;13.378;2023-07-13T01:51:32;11.15;;;7.47;;
48487;SDS011;34289;48.572;13.378;2023-07-13T01:53:58;9.80;;;7.00;;
48487;SDS011;34289;48.572;13.378;2023-07-13T01:56:23;18.55;;;7.63;;
48487;SDS011;34289;48.572;13.378;2023-07-13T01:58:49;18.05;;;7.97;;
48487;SDS011;34289;48.572;13.378;2023-07-13T02:01:14;13.60;;;6.93;;
48487;SDS011;34289;48.572;13.378;2023-07-13T02:03:40;8.65;;;6.88;;
48487;SDS011;34289;48.572;13.378;2023-07-13T02:06:06;12.32;;;6.95;;
48487;SDS011;34289;48.572;13.378;2023-07-13T02:08:34;14.63;;;7.45;;
48487;SDS011;34289;48.572;13.378;2023-07-13T02:11:00;9.25;;;6.53;;
48487;SDS011;34289;48.572;13.378;2023-07-13T02:13:27;11.35;;;6.78;;
48487;SDS011;34289;48.572;13.378;2023-07-13T02:15:53;11.85;;;6.85;;
48487;SDS011;34289;48.572;13.378;2023-07-13T02:18:18;14.57;;;5.38;;
48487;SDS011;34289;48.572;13.378;2023-07-13T02:20:44;9.95;;;5.90;;
48487;SDS011;34289;48.572;13.378;2023-07-13T02:23:10;18.48;;;6.22;;
48487;SDS011;34289;48.572;13.378;2023-07-13T02:25:36;9.95;;;4.90;;
48487;SDS011;34289;48.572;13.378;2023-07-13T02:28:02;9.45;;;5.05;;
48487;SDS011;34289;48.572;13.378;2023-07-13T02:30:28;6.97;;;5.55;;
48487;SDS011;34289;48.572;13.378;2023-07-13T02:32:55;6.50;;;4.82;;
48487;SDS011;34289;48.572;13.378;2023-07-13T02:35:23;8.73;;;5.53;;
48487;SDS011;34289;48.572;13.378;2023-07-13T02:37:49;12.75;;;5.57;;
48487;SDS011;34289;48.572;13.378;2023-07-13T02:40:15;10.13;;;5.00;;
48487;SDS011;34289;48.572;13.378;2023-07-13T02:42:41;15.10;;;5.30;;
48487;SDS011;34289;48.572;13.378;2023-07-13T02:45:07;12.05;;;5.63;;
48487;SDS011;34289;48.572;13.378;2023-07-13T02:47:33;11.57;;;5.68;;
48487;SDS011;34289;48.572;13.378;2023-07-13T02:49:59;11.18;;;5.50;;
48487;SDS011;34289;48.572;13.378;2023-07-13T02:52:25;8.13;;;6.18;;
48487;SDS011;34289;48.572;13.378;2023-07-13T02:54:51;9.10;;;6.22;;
48487;SDS011;34289;48.572;13.378;2023-07-13T02:57:17;13.23;;;6.60;;
48487;SDS011;34289;48.572;13.378;2023-07-13T02:59:43;11.73;;;6.10;;
48487;SDS011;34289;48.572;13.378;2023-07-13T03:02:08;11.38;;;6.38;;
48487;SDS011;34289;48.572;13.378;2023-07-13T03:04:35;13.80;;;6.07;;
48487;SDS011;34289;48.572;13.378;2023-07-13T03:07:02;17.00;;;6.85;;
48487;SDS011;34289;48.572;13.378;2023-07-13T03:09:28;10.30;;;5.68;;
48487;SDS011;34289;48.572;13.378;2023-07-13T03:11:54;10.50;;;5.47;;
48487;SDS011;34289;48.572;13.378;2023-07-13T03:14:21;16.63;;;6.28;;
48487;SDS011;34289;48.572;13.378;2023-07-13T03:16:47;10.95;;;5.68;;
48487;SDS011;34289;48.572;13.378;2023-07-13T03:19:13;9.77;;;5.97;;
48487;SDS011;34289;48.572;13.378;2023-07-13T03:21:39;13.05;;;5.80;;
48487;SDS011;34289;48.572;13.378;2023-07-13T03:24:04;11.80;;;5.32;;
48487;SDS011;34289;48.572;13.378;2023-07-13T03:26:30;6.93;;;5.75;;
48487;SDS011;34289;48.572;13.378;2023-07-13T03:28:56;14.02;;;6.00;;
48487;SDS011;34289;48.572;13.378;2023-07-13T03:31:24;12.57;;;5.32;;
48487;SDS011;34289;48.572;13.378;2023-07-13T03:33:51;7.00;;;5.13;;
48487;SDS011;34289;48.572;13.378;2023-07-13T03:36:21;9.48;;;5.35;;
48487;SDS011;34289;48.572;13.378;2023-07-13T03:38:50;11.43;;;5.03;;
48487;SDS011;34289;48.572;13.378;2023-07-13T03:41:18;8.40;;;5.15;;
48487;SDS011;34289;48.572;13.378;2023-07-13T03:43:44;6.28;;;5.03;;
48487;SDS011;34289;48.572;13.378;2023-07-13T03:46:10;9.90;;;4.78;;
48487;SDS011;34289;48.572;13.378;2023-07-13T03:48:36;13.52;;;5.45;;
48487;SDS011;34289;48.572;13.378;2023-07-13T03:51:02;10.50;;;4.82;;
48487;SDS011;34289;48.572;13.378;2023-07-13T03:53:27;7.90;;;4.63;;
48487;SDS011;34289;48.572;13.378;2023-07-13T03:55:53;11.93;;;4.72;;
48487;SDS011;34289;48.572;13.378;2023-07-13T04:00:51;8.57;;;4.18;;
48487;SDS011;34289;48.572;13.378;2023-07-13T04:03:18;9.25;;;4.03;;
48487;SDS011;34289;48.572;13.378;2023-07-13T04:05:43;13.15;;;4.70;;
48487;SDS011;34289;48.572;13.378;2023-07-13T04:08:09;10.98;;;4.20;;
48487;SDS011;34289;48.572;13.378;2023-07-13T04:10:34;7.35;;;4.15;;
48487;SDS011;34289;48.572;13.378;2023-07-13T04:13:00;11.77;;;4.85;;
48487;SDS011;34289;48.572;13.378;2023-07-13T04:15:26;3.90;;;3.25;;
48487;SDS011;34289;48.572;13.378;2023-07-13T04:17:54;5.88;;;3.85;;
48487;SDS011;34289;48.572;13.378;2023-07-13T04:20:20;5.80;;;3.33;;
48487;SDS011;34289;48.572;13.378;2023-07-13T04:22:46;9.10;;;3.55;;
48487;SDS011;34289;48.572;13.378;2023-07-13T04:25:12;10.05;;;4.25;;
48487;SDS011;34289;48.572;13.378;2023-07-13T04:27:38;7.85;;;3.60;;
48487;SDS011;34289;48.572;13.378;2023-07-13T04:30:05;9.63;;;3.63;;
48487;SDS011;34289;48.572;13.378;2023-07-13T04:32:31;5.88;;;3.65;;
48487;SDS011;34289;48.572;13.378;2023-07-13T04:34:57;7.07;;;3.30;;
48487;SDS011;34289;48.572;13.378;2023-07-13T04:37:24;7.00;;;3.35;;
48487;SDS011;34289;48.572;13.378;2023-07-13T04:39:50;4.22;;;2.97;;
48487;SDS011;34289;48.572;13.378;2023-07-13T04:42:17;5.57;;;3.00;;
48487;SDS011;34289;48.572;13.378;2023-07-13T04:44:47;5.05;;;3.05;;
48487;SDS011;34289;48.572;13.378;2023-07-13T04:47:14;9.43;;;3.33;;
48487;SDS011;34289;48.572;13.378;2023-07-13T04:49:39;4.18;;;2.30;;
48487;SDS011;34289;48.572;13.378;2023-07-13T04:52:05;7.22;;;3.08;;
48487;SDS011;34289;48.572;13.378;2023-07-13T04:54:32;5.45;;;2.53;;
48487;SDS011;34289;48.572;13.378;2023-07-13T04:56:58;6.78;;;2.33;;
48487;SDS011;34289;48.572;13.378;2023-07-13T04:59:24;11.52;;;2.63;;
48487;SDS011;34289;48.572;13.378;2023-07-13T05:01:50;7.95;;;2.30;;
48487;SDS011;34289;48.572;13.378;2023-07-13T05:04:16;4.90;;;1.90;;
48487;SDS011;34289;48.572;13.378;2023-07-13T05:06:41;5.05;;;2.22;;
48487;SDS011;34289;48.572;13.378;2023-07-13T05:09:07;10.25;;;2.45;;
48487;SDS011;34289;48.572;13.378;2023-07-13T05:11:33;7.20;;;3.15;;
48487;SDS011;34289;48.572;13.378;2023-07-13T05:13:59;6.10;;;2.13;;
48487;SDS011;34289;48.572;13.378;2023-07-13T05:16:26;3.67;;;2.05;;
48487;SDS011;34289;48.572;13.378;2023-07-13T05:18:52;4.72;;;2.15;;
48487;SDS011;34289;48.572;13.378;2023-07-13T05:21:18;4.05;;;2.00;;
48487;SDS011;34289;48.572;13.378;2023-07-13T05:23:43;5.75;;;2.08;;
48487;SDS011;34289;48.572;13.378;2023-07-13T05:26:09;3.90;;;2.50;;
48487;SDS011;34289;48.572;13.378;2023-07-13T05:28:35;5.68;;;2.30;;
48487;SDS011;34289;48.572;13.378;2023-07-13T05:31:01;3.58;;;2.50;;
48487;SDS011;34289;48.572;13.378;2023-07-13T05:33:27;6.25;;;2.88;;
48487;SDS011;34289;48.572;13.378;2023-07-13T05:35:53;4.60;;;2.38;;
48487;SDS011;34289;48.572;13.378;2023-07-13T05:38:18;5.38;;;2.60;;
48487;SDS011;34289;48.572;13.378;2023-07-13T05:40:45;8.43;;;2.50;;
48487;SDS011;34289;48.572;13.378;2023-07-13T05:43:11;3.08;;;2.25;;
48487;SDS011;34289;48.572;13.378;2023-07-13T05:45:38;6.75;;;2.53;;
48487;SDS011;34289;48.572;13.378;2023-07-13T05:48:04;4.90;;;3.05;;
48487;SDS011;34289;48.572;13.378;2023-07-13T05:50:29;7.68;;;2.60;;
48487;SDS011;34289;48.572;13.378;2023-07-13T05:52:55;8.05;;;2.40;;
48487;SDS011;34289;48.572;13.378;2023-07-13T05:55:21;6.35;;;2.38;;
48487;SDS011;34289;48.572;13.378;2023-07-13T05:57:47;3.15;;;2.47;;
48487;SDS011;34289;48.572;13.378;2023-07-13T06:00:13;7.25;;;3.53;;
48487;SDS011;34289;48.572;13.378;2023-07-13T06:02:39;5.63;;;2.63;;
48487;SDS011;34289;48.572;13.378;2023-07-13T06:05:04;6.95;;;2.78;;
48487;SDS011;34289;48.572;13.378;2023-07-13T06:07:30;6.72;;;2.70;;
48487;SDS011;34289;48.572;13.378;2023-07-13T06:09:56;9.38;;;3.33;;
48487;SDS011;34289;48.572;13.378;2023-07-13T06:12:21;4.95;;;2.70;;
48487;SDS011;34289;48.572;13.378;2023-07-13T06:14:47;6.20;;;2.53;;
48487;SDS011;34289;48.572;13.378;2023-07-13T06:17:13;5.45;;;2.80;;
48487;SDS011;34289;48.572;13.378;2023-07-13T06:19:38;7.28;;;2.55;;
48487;SDS011;34289;48.572;13.378;2023-07-13T06:22:04;5.38;;;2.88;;
48487;SDS011;34289;48.572;13.378;2023-07-13T06:24:30;6.18;;;2.72;;
48487;SDS011;34289;48.572;13.378;2023-07-13T06:26:56;5.18;;;3.13;;
48487;SDS011;34289;48.572;13.378;2023-07-13T06:29:21;4.70;;;2.50;;
48487;SDS011;34289;48.572;13.378;2023-07-13T06:31:47;3.50;;;3.10;;
48487;SDS011;34289;48.572;13.378;2023-07-13T06:34:13;7.97;;;3.05;;
48487;SDS011;34289;48.572;13.378;2023-07-13T06:36:38;10.93;;;3.83;;
48487;SDS011;34289;48.572;13.378;2023-07-13T06:39:04;8.23;;;3.13;;
48487;SDS011;34289;48.572;13.378;2023-07-13T06:41:31;6.22;;;3.90;;
48487;SDS011;34289;48.572;13.378;2023-07-13T06:43:58;12.70;;;3.92;;
48487;SDS011;34289;48.572;13.378;2023-07-13T06:46:24;5.75;;;3.20;;
48487;SDS011;34289;48.572;13.378;2023-07-13T06:48:51;14.07;;;3.92;;
48487;SDS011;34289;48.572;13.378;2023-07-13T06:51:17;8.80;;;3.50;;
48487;SDS011;34289;48.572;13.378;2023-07-13T06:53:42;5.70;;;2.90;;
48487;SDS011;34289;48.572;13.378;2023-07-13T06:56:09;9.80;;;3.15;;
48487;SDS011;34289;48.572;13.378;2023-07-13T06:58:36;7.65;;;3.58;;
48487;SDS011;34289;48.572;13.378;2023-07-13T07:01:02;5.25;;;3.50;;
48487;SDS011;34289;48.572;13.378;2023-07-13T07:03:29;7.57;;;3.53;;
48487;SDS011;34289;48.572;13.378;2023-07-13T07:05:59;7.80;;;3.15;;
48487;SDS011;34289;48.572;13.378;2023-07-13T07:08:35;7.80;;;3.13;;
48487;SDS011;34289;48.572;13.378;2023-07-13T07:11:00;7.82;;;2.90;;
48487;SDS011;34289;48.572;13.378;2023-07-13T07:13:26;6.55;;;3.50;;
48487;SDS011;34289;48.572;13.378;2023-07-13T07:15:53;4.50;;;3.17;;
48487;SDS011;34289;48.572;13.378;2023-07-13T07:18:19;6.75;;;3.22;;
48487;SDS011;34289;48.572;13.378;2023-07-13T07:20:44;9.35;;;3.30;;
48487;SDS011;34289;48.572;13.378;2023-07-13T07:23:10;8.95;;;3.17;;
48487;SDS011;34289;48.572;13.378;2023-07-13T07:25:35;8.05;;;3.10;;
48487;SDS011;34289;48.572;13.378;2023-07-13T07:28:06;6.23;;;3.73;;
48487;SDS011;34289;48.572;13.378;2023-07-13T07:30:33;7.15;;;2.95;;
48487;SDS011;34289;48.572;13.378;2023-07-13T07:32:59;6.10;;;2.47;;
48487;SDS011;34289;48.572;13.378;2023-07-13T07:35:25;6.85;;;2.72;;
48487;SDS011;34289;48.572;13.378;2023-07-13T07:37:50;9.50;;;3.20;;
48487;SDS011;34289;48.572;13.378;2023-07-13T07:40:16;5.65;;;2.58;;
48487;SDS011;34289;48.572;13.378;2023-07-13T07:42:41;4.00;;;2.58;;
48487;SDS011;34289;48.572;13.378;2023-07-13T07:45:07;5.80;;;2.33;;
48487;SDS011;34289;48.572;13.378;2023-07-13T07:47:33;5.30;;;2.60;;
48487;SDS011;34289;48.572;13.378;2023-07-13T07:49:59;7.07;;;2.90;;
48487;SDS011;34289;48.572;13.378;2023-07-13T07:52:25;6.70;;;2.80;;
48487;SDS011;34289;48.572;13.378;2023-07-13T07:54:50;6.05;;;3.33;;
48487;SDS011;34289;48.572;13.378;2023-07-13T07:57:16;5.20;;;2.90;;
48487;SDS011;34289;48.572;13.378;2023-07-13T07:59:41;5.80;;;2.50;;
48487;SDS011;34289;48.572;13.378;2023-07-13T08:02:08;7.95;;;2.42;;
48487;SDS011;34289;48.572;13.378;2023-07-13T08:04:35;9.73;;;2.70;;
48487;SDS011;34289;48.572;13.378;2023-07-13T08:07:01;6.40;;;2.92;;
48487;SDS011;34289;48.572;13.378;2023-07-13T08:09:28;6.07;;;2.80;;
48487;SDS011;34289;48.572;13.378;2023-07-13T08:11:54;9.13;;;3.10;;
48487;SDS011;34289;48.572;13.378;2023-07-13T08:14:19;3.00;;;2.63;;
48487;SDS011;34289;48.572;13.378;2023-07-13T08:16:45;8.18;;;2.30;;
48487;SDS011;34289;48.572;13.378;2023-07-13T08:19:11;4.30;;;2.15;;
48487;SDS011;34289;48.572;13.378;2023-07-13T08:21:37;6.47;;;2.50;;
48487;SDS011;34289;48.572;13.378;2023-07-13T08:24:03;3.55;;;2.50;;
48487;SDS011;34289;48.572;13.378;2023-07-13T08:26:28;4.32;;;2.75;;
48487;SDS011;34289;48.572;13.378;2023-07-13T08:28:54;4.20;;;2.40;;
48487;SDS011;34289;48.572;13.378;2023-07-13T08:31:20;5.97;;;2.03;;
48487;SDS011;34289;48.572;13.378;2023-07-13T08:33:45;4.55;;;2.55;;
48487;SDS011;34289;48.572;13.378;2023-07-13T08:36:11;11.02;;;2.95;;
48487;SDS011;34289;48.572;13.378;2023-07-13T08:38:37;5.93;;;2.00;;
48487;SDS011;34289;48.572;13.378;2023-07-13T08:41:09;4.60;;;2.20;;
48487;SDS011;34289;48.572;13.378;2023-07-13T08:43:37;5.70;;;2.47;;
48487;SDS011;34289;48.572;13.378;2023-07-13T08:46:37;5.60;;;2.42;;
48487;SDS011;34289;48.572;13.378;2023-07-13T08:49:10;7.03;;;2.42;;
48487;SDS011;34289;48.572;13.378;2023-07-13T08:56:56;3.00;;;1.90;;
48487;SDS011;34289;48.572;13.378;2023-07-13T08:59:24;4.05;;;2.05;;
48487;SDS011;34289;48.572;13.378;2023-07-13T09:04:34;5.35;;;1.50;;
48487;SDS011;34289;48.572;13.378;2023-07-13T09:14:58;6.43;;;2.22;;
48487;SDS011;34289;48.572;13.378;2023-07-13T09:17:27;10.52;;;2.58;;
48487;SDS011;34289;48.572;13.378;2023-07-13T09:20:03;5.38;;;2.15;;
48487;SDS011;34289;48.572;13.378;2023-07-13T09:22:34;8.40;;;2.40;;
48487;SDS011;34289;48.572;13.378;2023-07-13T09:25:45;7.28;;;2.33;;
48487;SDS011;34289;48.572;13.378;2023-07-13T09:30:30;4.53;;;2.53;;
48487;SDS011;34289;48.572;13.378;2023-07-13T09:33:08;4.38;;;2.22;;
48487;SDS011;34289;48.572;13.378;2023-07-13T09:35:34;3.90;;;2.05;;
48487;SDS011;34289;48.572;13.378;2023-07-13T09:38:19;7.85;;;2.20;;
48487;SDS011;34289;48.572;13.378;2023-07-13T09:40:50;5.10;;;1.88;;
48487;SDS011;34289;48.572;13.378;2023-07-13T09:43:18;6.05;;;1.85;;
48487;SDS011;34289;48.572;13.378;2023-07-13T09:45:46;5.57;;;1.95;;
48487;SDS011;34289;48.572;13.378;2023-07-13T09:48:14;4.50;;;1.70;;
48487;SDS011;34289;48.572;13.378;2023-07-13T09:50:41;6.63;;;2.05;;
48487;SDS011;34289;48.572;13.378;2023-07-13T09:53:12;3.33;;;1.67;;
48487;SDS011;34289;48.572;13.378;2023-07-13T09:55:42;2.65;;;1.80;;
48487;SDS011;34289;48.572;13.378;2023-07-13T10:00:41;3.40;;;1.65;;
48487;SDS011;34289;48.572;13.378;2023-07-13T10:03:19;2.83;;;1.60;;
48487;SDS011;34289;48.572;13.378;2023-07-13T10:05:47;3.22;;;1.42;;
48487;SDS011;34289;48.572;13.378;2023-07-13T10:08:16;6.18;;;2.03;;
48487;SDS011;34289;48.572;13.378;2023-07-13T10:10:44;3.08;;;1.85;;
48487;SDS011;34289;48.572;13.378;2023-07-13T10:15:52;8.35;;;1.50;;
48487;SDS011;34289;48.572;13.378;2023-07-13T10:18:18;10.00;;;1.65;;
48487;SDS011;34289;48.572;13.378;2023-07-13T10:20:45;5.10;;;1.88;;
48487;SDS011;34289;48.572;13.378;2023-07-13T10:23:14;5.70;;;1.65;;
48487;SDS011;34289;48.572;13.378;2023-07-13T10:25:48;2.70;;;1.65;;
48487;SDS011;34289;48.572;13.378;2023-07-13T10:30:53;5.22;;;1.95;;
48487;SDS011;34289;48.572;13.378;2023-07-13T10:33:21;4.32;;;1.50;;
48487;SDS011;34289;48.572;13.378;2023-07-13T10:35:47;4.88;;;1.58;;
48487;SDS011;34289;48.572;13.378;2023-07-13T10:38:20;3.47;;;2.03;;
48487;SDS011;34289;48.572;13.378;2023-07-13T10:40:55;3.10;;;1.50;;
48487;SDS011;34289;48.572;13.378;2023-07-13T10:43:33;3.38;;;1.35;;
48487;SDS011;34289;48.572;13.378;2023-07-13T10:46:03;4.90;;;1.40;;
48487;SDS011;34289;48.572;13.378;2023-07-13T10:48:35;3.83;;;1.70;;
48487;SDS011;34289;48.572;13.378;2023-07-13T10:51:02;2.70;;;1.33;;
48487;SDS011;34289;48.572;13.378;2023-07-13T10:53:32;5.38;;;1.40;;
48487;SDS011;34289;48.572;13.378;2023-07-13T10:56:03;3.42;;;1.23;;
48487;SDS011;34289;48.572;13.378;2023-07-13T10:58:41;2.47;;;1.40;;
48487;SDS011;34289;48.572;13.378;2023-07-13T11:04:00;4.60;;;1.30;;
48487;SDS011;34289;48.572;13.378;2023-07-13T11:08:54;3.25;;;1.10;;
48487;SDS011;34289;48.572;13.378;2023-07-13T11:18:47;2.90;;;1.20;;
48487;SDS011;34289;48.572;13.378;2023-07-13T11:21:21;1.80;;;0.95;;
48487;SDS011;34289;48.572;13.378;2023-07-13T11:23:55;3.85;;;1.48;;
48487;SDS011;34289;48.572;13.378;2023-07-13T11:31:51;2.45;;;1.20;;
48487;SDS011;34289;48.572;13.378;2023-07-13T11:34:21;1.77;;;1.10;;
48487;SDS011;34289;48.572;13.378;2023-07-13T11:37:01;3.75;;;1.00;;
48487;SDS011;34289;48.572;13.378;2023-07-13T11:39:34;1.75;;;0.90;;
48487;SDS011;34289;48.572;13.378;2023-07-13T11:42:05;3.42;;;1.02;;
48487;SDS011;34289;48.572;13.378;2023-07-13T11:44:34;2.78;;;1.27;;
48487;SDS011;34289;48.572;13.378;2023-07-13T11:47:00;3.10;;;1.45;;
48487;SDS011;34289;48.572;13.378;2023-07-13T11:49:42;4.32;;;1.05;;
48487;SDS011;34289;48.572;13.378;2023-07-13T11:52:14;9.57;;;1.20;;
48487;SDS011;34289;48.572;13.378;2023-07-13T11:54:46;2.50;;;1.33;;
48487;SDS011;34289;48.572;13.378;2023-07-13T11:59:51;3.97;;;1.40;;
48487;SDS011;34289;48.572;13.378;2023-07-13T12:02:38;4.00;;;1.45;;
48487;SDS011;34289;48.572;13.378;2023-07-13T12:05:09;2.28;;;1.27;;
48487;SDS011;34289;48.572;13.378;2023-07-13T12:07:38;3.97;;;1.23;;
48487;SDS011;34289;48.572;13.378;2023-07-13T12:12:57;5.25;;;1.50;;
48487;SDS011;34289;48.572;13.378;2023-07-13T12:15:32;4.53;;;1.17;;
48487;SDS011;34289;48.572;13.378;2023-07-13T12:18:01;4.95;;;1.45;;
48487;SDS011;34289;48.572;13.378;2023-07-13T12:20:28;4.32;;;1.45;;
48487;SDS011;34289;48.572;13.378;2023-07-13T12:23:00;3.90;;;1.52;;
48487;SDS011;34289;48.572;13.378;2023-07-13T12:25:27;7.78;;;1.27;;
48487;SDS011;34289;48.572;13.378;2023-07-13T12:27:54;2.08;;;1.17;;
48487;SDS011;34289;48.572;13.378;2023-07-13T12:32:59;3.00;;;1.10;;
48487;SDS011;34289;48.572;13.378;2023-07-13T12:35:39;2.92;;;1.10;;
48487;SDS011;34289;48.572;13.378;2023-07-13T12:38:10;4.20;;;1.52;;
48487;SDS011;34289;48.572;13.378;2023-07-13T12:40:36;2.83;;;1.33;;
48487;SDS011;34289;48.572;13.378;2023-07-13T12:43:03;5.95;;;1.15;;
48487;SDS011;34289;48.572;13.378;2023-07-13T12:45:29;2.95;;;1.27;;
48487;SDS011;34289;48.572;13.378;2023-07-13T12:47:57;3.10;;;1.08;;
48487;SDS011;34289;48.572;13.378;2023-07-13T12:50:28;1.38;;;0.80;;
48487;SDS011;34289;48.572;13.378;2023-07-13T12:52:59;5.50;;;1.40;;
48487;SDS011;34289;48.572;13.378;2023-07-13T12:55:28;2.28;;;1.17;;
48487;SDS011;34289;48.572;13.378;2023-07-13T12:57:57;2.22;;;1.15;;
48487;SDS011;34289;48.572;13.378;2023-07-13T13:00:30;6.00;;;1.30;;
48487;SDS011;34289;48.572;13.378;2023-07-13T13:02:58;2.33;;;0.80;;
48487;SDS011;34289;48.572;13.378;2023-07-13T13:05:30;3.70;;;1.17;;
48487;SDS011;34289;48.572;13.378;2023-07-13T13:07:58;6.18;;;1.25;;
48487;SDS011;34289;48.572;13.378;2023-07-13T13:10:23;2.17;;;1.10;;
48487;SDS011;34289;48.572;13.378;2023-07-13T13:12:50;3.22;;;1.30;;
48487;SDS011;34289;48.572;13.378;2023-07-13T13:15:15;6.57;;;1.15;;
48487;SDS011;34289;48.572;13.378;2023-07-13T13:17:42;5.05;;;1.10;;
48487;SDS011;34289;48.572;13.378;2023-07-13T13:20:13;3.03;;;1.25;;
48487;SDS011;34289;48.572;13.378;2023-07-13T13:22:41;3.63;;;1.05;;
48487;SDS011;34289;48.572;13.378;2023-07-13T13:25:09;2.95;;;1.10;;
48487;SDS011;34289;48.572;13.378;2023-07-13T13:27:36;6.93;;;1.42;;
48487;SDS011;34289;48.572;13.378;2023-07-13T13:30:02;4.10;;;1.05;;
48487;SDS011;34289;48.572;13.378;2023-07-13T13:32:28;1.67;;;0.98;;
48487;SDS011;34289;48.572;13.378;2023-07-13T13:34:53;6.25;;;1.40;;
48487;SDS011;34289;48.572;13.378;2023-07-13T13:37:22;1.90;;;0.98;;
48487;SDS011;34289;48.572;13.378;2023-07-13T13:39:50;2.60;;;0.80;;
48487;SDS011;34289;48.572;13.378;2023-07-13T13:42:17;4.28;;;1.52;;
48487;SDS011;34289;48.572;13.378;2023-07-13T13:44:42;2.83;;;1.00;;
48487;SDS011;34289;48.572;13.378;2023-07-13T13:49:54;4.03;;;1.30;;
48487;SDS011;34289;48.572;13.378;2023-07-13T13:52:20;4.85;;;1.30;;
48487;SDS011;34289;48.572;13.378;2023-07-13T13:54:45;3.88;;;1.23;;
48487;SDS011;34289;48.572;13.378;2023-07-13T13:57:11;3.47;;;1.08;;
48487;SDS011;34289;48.572;13.378;2023-07-13T13:59:37;2.30;;;1.20;;
48487;SDS011;34289;48.572;13.378;2023-07-13T14:02:11;2.65;;;1.08;;
48487;SDS011;34289;48.572;13.378;2023-07-13T14:04:47;3.70;;;1.13;;
48487;SDS011;34289;48.572;13.378;2023-07-13T14:07:16;2.60;;;1.00;;
48487;SDS011;34289;48.572;13.378;2023-07-13T14:09:42;3.50;;;1.23;;
48487;SDS011;34289;48.572;13.378;2023-07-13T14:12:08;2.15;;;1.05;;
48487;SDS011;34289;48.572;13.378;2023-07-13T14:14:36;2.47;;;1.00;;
48487;SDS011;34289;48.572;13.378;2023-07-13T14:17:03;2.75;;;1.05;;
48487;SDS011;34289;48.572;13.378;2023-07-13T14:19:29;3.15;;;1.27;;
48487;SDS011;34289;48.572;13.378;2023-07-13T14:21:55;2.25;;;1.30;;
48487;SDS011;34289;48.572;13.378;2023-07-13T14:24:20;2.80;;;1.00;;
48487;SDS011;34289;48.572;13.378;2023-07-13T14:26:46;4.53;;;1.40;;
48487;SDS011;34289;48.572;13.378;2023-07-13T14:29:13;4.13;;;1.15;;
48487;SDS011;34289;48.572;13.378;2023-07-13T14:31:41;3.90;;;1.15;;
48487;SDS011;34289;48.572;13.378;2023-07-13T14:34:09;3.28;;;1.20;;
48487;SDS011;34289;48.572;13.378;2023-07-13T14:36:42;3.63;;;1.20;;
48487;SDS011;34289;48.572;13.378;2023-07-13T14:39:31;4.50;;;1.10;;
48487;SDS011;34289;48.572;13.378;2023-07-13T14:41:56;3.88;;;1.20;;
48487;SDS011;34289;48.572;13.378;2023-07-13T14:44:26;2.03;;;1.10;;
48487;SDS011;34289;48.572;13.378;2023-07-13T14:46:54;2.45;;;1.10;;
48487;SDS011;34289;48.572;13.378;2023-07-13T14:49:24;3.00;;;1.27;;
48487;SDS011;34289;48.572;13.378;2023-07-13T14:51:58;4.03;;;1.10;;
48487;SDS011;34289;48.572;13.378;2023-07-13T14:54:44;3.42;;;1.27;;
48487;SDS011;34289;48.572;13.378;2023-07-13T14:57:14;5.38;;;1.20;;
48487;SDS011;34289;48.572;13.378;2023-07-13T14:59:43;1.70;;;0.80;;
48487;SDS011;34289;48.572;13.378;2023-07-13T15:02:23;4.18;;;1.10;;
48487;SDS011;34289;48.572;13.378;2023-07-13T15:04:58;2.15;;;0.90;;
48487;SDS011;34289;48.572;13.378;2023-07-13T15:07:24;3.97;;;1.27;;
48487;SDS011;34289;48.572;13.378;2023-07-13T15:09:50;5.60;;;1.80;;
48487;SDS011;34289;48.572;13.378;2023-07-13T15:12:16;2.33;;;1.00;;
48487;SDS011;34289;48.572;13.378;2023-07-13T15:14:42;3.22;;;0.80;;
48487;SDS011;34289;48.572;13.378;2023-07-13T15:19:52;5.13;;;1.13;;
48487;SDS011;34289;48.572;13.378;2023-07-13T15:22:18;3.42;;;1.38;;
48487;SDS011;34289;48.572;13.378;2023-07-13T15:24:44;7.43;;;1.02;;
48487;SDS011;34289;48.572;13.378;2023-07-13T15:27:13;1.92;;;0.95;;
48487;SDS011;34289;48.572;13.378;2023-07-13T15:29:38;4.00;;;1.60;;
48487;SDS011;34289;48.572;13.378;2023-07-13T15:32:10;2.72;;;1.45;;
48487;SDS011;34289;48.572;13.378;2023-07-13T15:34:39;2.40;;;1.02;;